Time;durP1;ratioP1;P1;durP2;ratioP2;P2;SDS_P1;SDS_P2;PMS_P1;PMS_P2;Temp;Humidity;BMP_temperature;BMP_pressure;BME280_temperature;BME280_humidity;BME280_pressure;Samples;Min_cycle;Max_cycle;Signal;HPM_P1;HPM_P2
2023/03/07 00:01:27;;;;;;;12.93;8.80;;;;;;;2.31;92.09;151959.25;4939285;29;20527;-94
2023/03/07 00:03:55;;;;;;;10.00;7.57;;;;;;;2.28;92.67;151952.81;4955746;29;20549;-94
2023/03/07 00:06:22;;;;;;;12.77;9.30;;;;;;;2.26;91.67;151947.69;4939507;29;20838;-94
2023/03/07 00:08:50;;;;;;;10.17;7.93;;;;;;;2.30;91.26;151957.94;4947881;29;20497;-94
2023/03/07 00:11:17;;;;;;;11.57;7.90;;;;;;;2.25;91.77;151945.09;4953793;29;20457;-94
2023/03/07 00:13:43;;;;;;;11.70;8.67;;;;;;;2.16;91.13;151921.97;4947420;28;20471;-94
2023/03/07 00:16:13;;;;;;;10.70;7.57;;;;;;;2.21;92.81;151934.84;4954783;29;20960;-93
2023/03/07 00:18:40;;;;;;;13.27;8.70;;;;;;;2.17;92.63;151924.53;4922722;28;1088592;-94
2023/03/07 00:21:09;;;;;;;10.23;7.07;;;;;;;2.15;92.56;151919.41;4959548;28;20254;-94
2023/03/07 00:23:37;;;;;;;11.17;7.60;;;;;;;2.13;92.85;151914.25;4968604;28;20546;-94
2023/03/07 00:26:05;;;;;;;13.47;8.30;;;;;;;2.15;93.21;151918.09;4957482;29;20497;-94
2023/03/07 00:28:32;;;;;;;11.10;8.17;;;;;;;2.13;92.38;151912.97;4938731;29;20461;-94
2023/03/07 00:31:00;;;;;;;13.17;7.70;;;;;;;2.13;92.43;151914.25;4954859;29;21044;-94
2023/03/07 00:33:26;;;;;;;9.73;7.73;;;;;;;2.13;92.35;151912.97;4939169;29;20507;-94
2023/03/07 00:35:57;;;;;;;11.67;8.23;;;;;;;2.18;93.56;151927.13;4939133;29;20526;-94
2023/03/07 00:38:26;;;;;;;11.93;7.27;;;;;;;2.17;92.13;151924.53;4938654;29;20450;-94
2023/03/07 00:40:58;;;;;;;11.43;7.73;;;;;;;2.18;92.22;151927.13;4971441;28;20811;-94
2023/03/07 00:43:24;;;;;;;12.63;7.63;;;;;;;2.17;92.71;151924.53;4949041;29;20489;-94
2023/03/07 00:45:51;;;;;;;10.40;7.77;;;;;;;2.17;93.20;151924.53;4961712;28;20438;-93
2023/03/07 00:48:18;;;;;;;10.63;8.17;;;;;;;2.16;93.34;151920.69;4956069;28;20450;-93
2023/03/07 00:50:45;;;;;;;11.17;7.60;;;;;;;2.16;92.14;151920.69;4940986;28;20461;-93
2023/03/07 00:53:12;;;;;;;10.80;8.30;;;;;;;2.20;92.91;151932.25;4939888;29;20527;-93
2023/03/07 00:55:40;;;;;;;11.30;8.17;;;;;;;2.20;92.30;151930.94;4952993;29;20931;-93
2023/03/07 00:58:07;;;;;;;11.03;7.70;;;;;;;2.23;91.15;151938.66;4938809;29;20445;-94
2023/03/07 01:00:34;;;;;;;14.50;8.10;;;;;;;2.28;90.56;151952.81;4956447;29;20546;-93
2023/03/07 01:03:02;;;;;;;10.77;8.30;;;;;;;2.23;91.23;151939.97;4955018;29;20451;-93
2023/03/07 01:05:29;;;;;;;10.17;6.63;;;;;;;2.23;92.14;151939.97;4945767;29;20548;-93
2023/03/07 01:07:56;;;;;;;10.93;8.10;;;;;;;2.26;91.20;151946.41;4962478;28;20442;-93
2023/03/07 01:10:25;;;;;;;11.50;8.30;;;;;;;2.24;90.69;151942.56;4954587;29;20445;-93
2023/03/07 01:12:54;;;;;;;11.07;6.93;;;;;;;2.25;92.15;151945.09;4934889;29;20459;-93
2023/03/07 01:15:20;;;;;;;10.57;7.10;;;;;;;2.21;92.77;151934.84;4939726;29;20493;-94
2023/03/07 01:17:47;;;;;;;10.87;7.73;;;;;;;2.24;92.13;151942.56;4953520;29;20476;-94
2023/03/07 01:20:14;;;;;;;11.37;7.37;;;;;;;2.25;92.37;151945.09;4953705;29;21020;-93
2023/03/07 01:22:41;;;;;;;11.40;7.53;;;;;;;2.26;90.53;151946.41;4940016;29;20457;-94
2023/03/07 01:25:08;;;;;;;13.47;8.67;;;;;;;2.27;89.89;151950.28;4938150;29;20868;-94
2023/03/07 01:27:35;;;;;;;10.10;6.60;;;;;;;2.25;90.38;151945.09;4954274;29;20441;-93
2023/03/07 01:30:04;;;;;;;8.23;6.90;;;;;;;2.24;88.99;151942.56;4949251;28;20444;-93
2023/03/07 01:32:31;;;;;;;10.50;7.30;;;;;;;2.24;89.51;151942.56;4944301;28;20484;-94
2023/03/07 01:34:58;;;;;;;10.10;7.20;;;;;;;2.23;90.56;151938.66;4954542;28;20490;-93
2023/03/07 01:37:24;;;;;;;9.47;6.90;;;;;;;2.20;89.67;151932.25;4954444;28;20479;-92
2023/03/07 01:39:52;;;;;;;9.10;7.00;;;;;;;2.21;88.50;151934.84;4953765;28;20461;-93
2023/03/07 01:42:19;;;;;;;10.00;6.97;;;;;;;2.20;88.97;151932.25;4955990;29;20533;-93
2023/03/07 01:45:00;;;;;;;9.40;6.30;;;;;;;2.23;89.60;151939.97;4958653;28;20472;-93
2023/03/07 01:47:33;;;;;;;10.10;7.37;;;;;;;2.22;88.85;151937.44;4964269;28;20543;-93
2023/03/07 01:50:03;;;;;;;9.17;6.63;;;;;;;2.20;89.34;151932.25;4955768;28;20457;-94
2023/03/07 01:52:34;;;;;;;11.80;7.20;;;;;;;2.19;88.56;151929.72;4953087;29;20928;-93
2023/03/07 01:55:08;;;;;;;10.67;7.17;;;;;;;2.20;88.00;151932.25;4986202;28;20814;-93
2023/03/07 01:57:37;;;;;;;8.60;7.50;;;;;;;2.19;89.53;151929.72;4958600;28;20477;-93
2023/03/07 02:00:09;;;;;;;8.77;6.60;;;;;;;2.19;88.25;151929.72;4935910;29;20461;-93
2023/03/07 02:02:46;;;;;;;9.33;7.20;;;;;;;2.17;90.89;151924.53;4950217;29;20442;-93
2023/03/07 02:05:22;;;;;;;10.77;7.37;;;;;;;2.18;90.63;151927.13;4951149;29;20447;-94
2023/03/07 02:07:50;;;;;;;11.47;7.70;;;;;;;2.17;90.03;151923.28;4949503;28;20702;-93
2023/03/07 02:10:21;;;;;;;9.00;6.27;;;;;;;2.15;89.62;151919.41;4946291;29;20825;-93
2023/03/07 02:12:49;;;;;;;9.70;7.07;;;;;;;2.19;90.09;151929.72;4937749;29;20446;-94
2023/03/07 02:15:16;;;;;;;9.50;7.20;;;;;;;2.17;89.86;151924.53;4950531;28;20475;-93
2023/03/07 02:17:45;;;;;;;9.40;7.57;;;;;;;2.14;88.43;151916.84;4947757;29;20485;-93
2023/03/07 02:20:24;;;;;;;10.87;7.23;;;;;;;2.11;88.95;151907.84;4938381;29;20457;-92
2023/03/07 02:22:51;;;;;;;13.47;7.77;;;;;;;2.18;88.39;151925.81;4952775;28;20435;-93
2023/03/07 02:25:20;;;;;;;10.90;7.80;;;;;;;2.16;89.59;151921.97;4941881;29;21039;-94
2023/03/07 02:27:49;;;;;;;10.80;7.17;;;;;;;2.13;89.58;151914.25;4937267;29;20454;-94
2023/03/07 02:30:16;;;;;;;9.27;6.70;;;;;;;2.13;89.89;151914.25;4954703;28;20465;-94
2023/03/07 02:32:43;;;;;;;10.80;7.90;;;;;;;2.12;89.25;151910.44;4936874;29;20449;-93
2023/03/07 02:35:15;;;;;;;10.30;7.43;;;;;;;2.09;88.73;151903.94;4952485;29;20575;-93
2023/03/07 02:37:44;;;;;;;9.47;6.90;;;;;;;2.11;89.42;151907.84;4953239;28;20457;-93
2023/03/07 02:40:12;;;;;;;10.67;7.50;;;;;;;2.11;88.84;151909.13;4952686;29;20500;-94
2023/03/07 02:42:41;;;;;;;10.97;7.87;;;;;;;2.14;89.88;151916.84;4937036;29;20452;-93
2023/03/07 02:45:15;;;;;;;10.27;7.03;;;;;;;2.11;88.99;151907.84;4966059;28;20454;-94
2023/03/07 02:47:43;;;;;;;10.73;7.23;;;;;;;2.14;87.72;151916.84;4936554;29;20432;-93
2023/03/07 02:50:12;;;;;;;8.57;7.37;;;;;;;2.13;88.72;151914.25;4980893;28;20472;-93
2023/03/07 02:52:42;;;;;;;10.60;7.43;;;;;;;2.14;88.51;151916.84;4963019;28;20993;-93
2023/03/07 02:55:10;;;;;;;10.47;7.43;;;;;;;2.11;88.95;151907.84;4925608;28;20837;-93
2023/03/07 02:57:41;;;;;;;10.93;7.20;;;;;;;2.13;89.82;151912.97;4950527;29;20539;-93
2023/03/07 03:00:10;;;;;;;10.37;7.00;;;;;;;2.11;90.24;151907.84;4945019;29;20488;-93
2023/03/07 03:02:39;;;;;;;11.60;7.40;;;;;;;2.09;88.40;151903.94;4940823;29;20465;-94
2023/03/07 03:05:06;;;;;;;10.20;7.33;;;;;;;2.07;88.90;151898.81;4935552;28;20813;-93
2023/03/07 03:07:33;;;;;;;12.37;8.10;;;;;;;2.10;89.42;151906.53;4951559;28;20439;-94
2023/03/07 03:10:01;;;;;;;9.00;6.90;;;;;;;2.08;89.62;151900.13;4937523;29;21000;-93
2023/03/07 03:12:30;;;;;;;12.33;7.87;;;;;;;2.09;89.58;151903.94;4934037;29;20543;-93
2023/03/07 03:14:57;;;;;;;12.53;8.97;;;;;;;2.05;88.21;151893.69;4952084;28;20583;-93
2023/03/07 03:17:24;;;;;;;10.47;7.97;;;;;;;2.05;89.48;151893.69;4962104;28;20913;-93
2023/03/07 03:19:51;;;;;;;11.50;7.90;;;;;;;2.06;88.45;151896.28;4968216;28;20470;-93
2023/03/07 03:22:19;;;;;;;10.90;7.43;;;;;;;2.11;88.22;151909.13;4952867;29;20697;-93
2023/03/07 03:24:47;;;;;;;10.60;7.47;;;;;;;2.11;88.27;151909.13;4935967;29;20473;-93
2023/03/07 03:27:16;;;;;;;11.00;8.07;;;;;;;2.08;90.22;151901.41;4938438;29;20449;-93
2023/03/07 03:29:45;;;;;;;14.23;8.00;;;;;;;2.15;90.40;151918.09;4936307;29;20458;-94
2023/03/07 03:32:12;;;;;;;10.37;7.03;;;;;;;2.08;89.51;151901.41;4953143;28;20469;-93
2023/03/07 03:34:42;;;;;;;11.00;7.50;;;;;;;2.07;89.70;151898.81;4952009;28;20477;-93
2023/03/07 03:37:10;;;;;;;10.57;8.17;;;;;;;2.07;89.56;151897.53;4959434;28;20436;-93
2023/03/07 03:39:37;;;;;;;11.17;7.87;;;;;;;2.14;89.89;151916.84;4973804;28;20512;-93
2023/03/07 03:42:05;;;;;;;14.03;9.20;;;;;;;2.06;90.26;151896.28;4956327;29;20987;-92
2023/03/07 03:44:31;;;;;;;10.90;7.30;;;;;;;2.05;90.86;151892.41;4945205;29;20580;-93
2023/03/07 03:46:58;;;;;;;10.10;7.60;;;;;;;2.07;90.47;151897.53;4939951;28;20480;-93
2023/03/07 03:49:25;;;;;;;13.10;8.30;;;;;;;2.11;89.10;151909.13;4955875;29;20521;-93
2023/03/07 03:51:54;;;;;;;9.63;7.47;;;;;;;2.11;90.30;151909.13;4956456;28;20444;-93
2023/03/07 03:54:22;;;;;;;12.70;8.50;;;;;;;2.11;88.66;151909.13;4939536;29;20482;-93
2023/03/07 03:56:49;;;;;;;12.30;7.27;;;;;;;2.09;89.30;151903.94;4949967;28;20466;-94
2023/03/07 03:59:15;;;;;;;11.33;7.30;;;;;;;2.10;89.74;151906.53;4943507;28;20454;-93
2023/03/07 04:01:42;;;;;;;10.60;7.23;;;;;;;2.10;91.10;151906.53;4975094;28;20458;-93
2023/03/07 04:04:09;;;;;;;10.03;7.13;;;;;;;2.10;90.15;151906.53;4952623;29;20921;-93
2023/03/07 04:06:37;;;;;;;13.33;9.10;;;;;;;2.15;89.47;151918.09;4945675;29;20463;-93
2023/03/07 04:09:04;;;;;;;12.93;9.20;;;;;;;2.14;89.72;151916.84;4954978;28;20465;-94
2023/03/07 04:11:33;;;;;;;13.30;7.80;;;;;;;2.12;89.71;151911.69;4951448;29;20648;-93
2023/03/07 04:14:00;;;;;;;17.17;9.10;;;;;;;2.23;88.45;151939.97;4955242;29;20545;-94
2023/03/07 04:16:27;;;;;;;11.17;8.43;;;;;;;2.19;89.09;151928.41;4940781;29;20493;-93
2023/03/07 04:18:54;;;;;;;11.53;8.33;;;;;;;2.14;89.41;151916.84;4952570;28;20776;-93
2023/03/07 04:21:22;;;;;;;11.23;7.93;;;;;;;2.11;89.01;151909.13;4955412;28;20486;-93
2023/03/07 04:23:54;;;;;;;10.50;7.47;;;;;;;2.12;89.80;151910.44;4943320;29;20525;-93
2023/03/07 04:26:21;;;;;;;12.20;7.70;;;;;;;2.11;89.82;151907.84;4939028;29;20432;-93
2023/03/07 04:28:49;;;;;;;10.90;7.50;;;;;;;2.06;88.42;151896.28;4939262;28;20521;-93
2023/03/07 04:31:42;;;;;;;13.70;8.10;;;;;;;1.99;89.90;151876.97;4956140;28;20445;-93
2023/03/07 04:34:11;;;;;;;12.20;7.80;;;;;;;1.99;89.93;151878.25;4945143;29;20488;-93
2023/03/07 04:36:38;;;;;;;14.47;9.03;;;;;;;1.96;89.81;151870.53;4954509;28;21054;-93
2023/03/07 04:39:05;;;;;;;15.70;9.07;;;;;;;1.97;89.52;151871.81;4970781;28;20828;-93
2023/03/07 04:41:33;;;;;;;11.27;8.00;;;;;;;1.94;89.56;151864.09;4955356;29;20450;-93
2023/03/07 04:44:06;;;;;;;10.93;7.63;;;;;;;1.97;89.59;151871.81;4981133;28;20824;-93
2023/03/07 04:46:32;;;;;;;11.40;8.63;;;;;;;1.97;89.49;151871.81;4957748;28;20454;-93
2023/03/07 04:48:59;;;;;;;10.90;8.07;;;;;;;1.98;90.22;151874.41;4959825;28;20463;-93
2023/03/07 04:51:26;;;;;;;14.27;8.77;;;;;;;1.93;90.39;151862.88;4949092;29;20962;-93
2023/03/07 04:53:54;;;;;;;13.53;8.70;;;;;;;1.91;91.07;151856.44;4955335;28;20454;-93
2023/03/07 04:56:20;;;;;;;11.77;8.70;;;;;;;1.91;90.89;151857.69;4942018;28;20496;-93
2023/03/07 04:58:47;;;;;;;11.30;8.03;;;;;;;1.91;91.36;151857.69;4939069;29;20539;-93
2023/03/07 05:01:16;;;;;;;13.50;8.20;;;;;;;1.98;90.83;151874.41;4937583;29;20453;-93
2023/03/07 05:03:43;;;;;;;10.27;7.70;;;;;;;1.97;90.36;151871.81;4953575;28;20477;-93
2023/03/07 05:06:14;;;;;;;13.53;9.13;;;;;;;1.97;88.21;151873.13;4942163;29;20557;-93
2023/03/07 05:08:42;;;;;;;11.13;8.10;;;;;;;2.04;89.36;151891.09;4938295;29;20996;-93
2023/03/07 05:11:09;;;;;;;11.47;8.17;;;;;;;2.07;89.26;151898.81;4952978;29;20469;-93
2023/03/07 05:13:36;;;;;;;12.07;8.47;;;;;;;2.08;88.40;151901.41;4955602;28;20457;-93
2023/03/07 05:16:03;;;;;;;12.13;8.47;;;;;;;2.08;87.93;151901.41;4953496;29;20814;-93
2023/03/07 05:18:32;;;;;;;11.63;7.50;;;;;;;2.14;87.27;151916.84;4951631;28;20804;-93
2023/03/07 05:20:59;;;;;;;11.70;7.90;;;;;;;2.09;87.62;151903.94;4950626;28;20443;-92
2023/03/07 05:23:27;;;;;;;10.87;7.80;;;;;;;2.06;88.60;151895.00;4959426;28;20437;-93
2023/03/07 05:25:55;;;;;;;10.50;7.73;;;;;;;2.04;88.47;151889.84;4951695;28;20450;-93
2023/03/07 05:28:22;;;;;;;11.20;7.63;;;;;;;2.00;88.45;151880.84;4952502;29;20945;-92
2023/03/07 05:30:49;;;;;;;13.07;8.67;;;;;;;2.01;87.11;151883.44;4956454;28;20468;-92
2023/03/07 05:33:16;;;;;;;10.90;7.27;;;;;;;2.05;87.10;151893.69;4936853;29;20542;-92
2023/03/07 05:35:44;;;;;;;10.17;7.23;;;;;;;2.02;87.07;151885.97;4953712;28;20473;-92
2023/03/07 05:38:12;;;;;;;11.47;7.57;;;;;;;2.10;86.70;151906.53;4947537;28;20443;-91
2023/03/07 05:40:40;;;;;;;8.73;7.57;;;;;;;2.08;87.62;151901.41;4958690;28;20463;-92
2023/03/07 05:43:07;;;;;;;11.77;7.80;;;;;;;2.08;87.12;151901.41;4952944;28;20445;-91
2023/03/07 05:45:34;;;;;;;10.53;7.70;;;;;;;2.05;87.92;151892.41;4949590;28;20807;-92
2023/03/07 05:48:01;;;;;;;9.20;6.60;;;;;;;2.03;87.93;151888.56;4942602;28;20452;-92
2023/03/07 05:50:30;;;;;;;12.03;7.70;;;;;;;2.08;86.52;151901.41;4950817;28;20469;-92
2023/03/07 05:52:59;;;;;;;9.10;6.77;;;;;;;2.10;86.17;151905.25;4949081;28;20570;-91
2023/03/07 05:55:29;;;;;;;15.70;8.17;;;;;;;2.10;85.54;151906.53;4932340;29;20473;-92
2023/03/07 05:57:56;;;;;;;11.37;8.20;;;;;;;2.16;84.91;151920.69;4934787;28;20481;-92
2023/03/07 06:00:23;;;;;;;11.33;7.53;;;;;;;2.17;86.34;151924.53;4964852;28;20467;-92
2023/03/07 06:02:55;;;;;;;9.40;6.60;;;;;;;2.14;86.43;151915.56;4952320;28;20484;-92
2023/03/07 06:05:22;;;;;;;10.13;6.77;;;;;;;2.10;86.56;151906.53;4944077;28;20454;-91
2023/03/07 06:07:49;;;;;;;12.40;7.40;;;;;;;2.08;86.24;151900.13;4949142;28;20460;-92
2023/03/07 06:10:18;;;;;;;9.23;6.70;;;;;;;2.08;86.43;151901.41;4956717;28;20489;-92
2023/03/07 06:12:49;;;;;;;11.47;7.00;;;;;;;2.14;85.72;151915.56;4951065;28;20557;-92
2023/03/07 06:15:16;;;;;;;9.77;6.87;;;;;;;2.12;85.01;151911.69;4953672;28;20532;-92
2023/03/07 06:17:43;;;;;;;9.47;6.57;;;;;;;2.12;85.57;151911.69;4944323;28;20489;-92
2023/03/07 06:20:11;;;;;;;10.10;7.37;;;;;;;2.11;86.92;151909.13;4965519;28;20465;-92
2023/03/07 06:22:39;;;;;;;9.60;6.50;;;;;;;2.13;85.06;151914.25;4947533;28;20466;-92
2023/03/07 06:25:07;;;;;;;9.23;6.83;;;;;;;2.10;86.50;151906.53;4934932;28;20577;-92
2023/03/07 06:27:36;;;;;;;10.63;6.20;;;;;;;2.15;84.87;151919.41;4950511;28;20463;-91
2023/03/07 06:30:05;;;;;;;9.13;6.50;;;;;;;2.11;85.49;151909.13;4933105;29;20463;-91
2023/03/07 06:32:32;;;;;;;10.43;6.17;;;;;;;2.17;84.46;151923.28;4959874;28;20499;-92
2023/03/07 06:34:59;;;;;;;9.67;7.20;;;;;;;2.15;84.60;151919.41;4929578;28;20484;-91
2023/03/07 06:37:27;;;;;;;12.17;7.43;;;;;;;2.21;85.33;151933.53;4942931;28;20457;-91
2023/03/07 06:39:57;;;;;;;9.07;6.40;;;;;;;2.16;85.30;151920.69;4932858;29;20497;-91
2023/03/07 06:42:24;;;;;;;10.10;6.60;;;;;;;2.20;84.97;151932.25;4939106;28;20474;-91
2023/03/07 06:44:52;;;;;;;9.77;6.87;;;;;;;2.15;86.98;151919.41;4960944;28;20449;-90
2023/03/07 06:47:19;;;;;;;9.80;6.63;;;;;;;2.09;85.20;151903.94;4942528;28;20455;-91
2023/03/07 06:49:46;;;;;;;9.77;6.90;;;;;;;2.19;84.35;151929.72;4940285;28;20460;-91
2023/03/07 06:52:13;;;;;;;7.63;5.90;;;;;;;2.16;85.61;151921.97;4940884;28;20462;-91
2023/03/07 06:54:40;;;;;;;10.33;6.23;;;;;;;2.19;84.32;151929.72;4949817;28;20453;-91
2023/03/07 06:57:07;;;;;;;9.10;6.13;;;;;;;2.26;83.70;151946.41;4959472;28;20481;-85
2023/03/07 06:59:34;;;;;;;9.10;6.40;;;;;;;2.28;83.81;151952.81;4943894;28;20465;-92
2023/03/07 07:02:03;;;;;;;9.83;7.07;;;;;;;2.30;83.30;151957.94;4941360;28;20482;-92
2023/03/07 07:04:30;;;;;;;9.37;6.90;;;;;;;2.38;83.75;151978.53;4950670;29;20453;-93
2023/03/07 07:06:57;;;;;;;9.37;6.77;;;;;;;2.37;84.40;151974.69;4956664;28;20500;-92
2023/03/07 07:09:24;;;;;;;11.20;6.87;;;;;;;2.41;85.14;151984.97;4958441;28;20521;-92
2023/03/07 07:11:51;;;;;;;11.27;7.47;;;;;;;2.45;83.68;151995.28;4949176;28;22186;-92
2023/03/07 07:14:20;;;;;;;8.77;6.80;;;;;;;2.64;82.59;152042.84;4965327;28;20461;-92
2023/03/07 07:16:47;;;;;;;9.50;6.90;;;;;;;2.68;82.51;152053.13;4949489;28;20573;-92
2023/03/07 07:19:15;;;;;;;9.17;6.87;;;;;;;2.63;84.14;152041.56;4963745;28;20478;-92
2023/03/07 07:21:42;;;;;;;9.63;6.40;;;;;;;2.68;82.21;152053.13;4950830;29;20540;-92
2023/03/07 07:24:11;;;;;;;9.83;6.50;;;;;;;2.71;82.19;152060.84;4964401;28;20469;-93
2023/03/07 07:26:38;;;;;;;11.43;7.27;;;;;;;2.74;83.44;152068.56;4965224;28;21029;-92
2023/03/07 07:29:05;;;;;;;11.90;7.93;;;;;;;2.85;81.56;152096.88;4950366;29;20554;-94
2023/03/07 07:31:31;;;;;;;9.27;6.83;;;;;;;2.85;82.23;152098.19;4967261;28;20451;-93
2023/03/07 07:34:00;;;;;;;9.50;6.97;;;;;;;2.93;82.67;152117.47;4939442;29;20463;-94
2023/03/07 07:36:31;;;;;;;10.43;6.37;;;;;;;2.99;82.55;152132.91;4938335;29;20469;-92
2023/03/07 07:38:58;;;;;;;10.00;6.67;;;;;;;2.98;81.32;152130.31;4947433;29;20542;-93
2023/03/07 07:41:25;;;;;;;10.90;7.37;;;;;;;3.10;83.21;152161.19;4951341;29;20460;-92
2023/03/07 07:43:55;;;;;;;7.93;6.27;;;;;;;3.20;82.50;152186.97;4955208;28;20490;-93
2023/03/07 07:46:34;;;;;;;11.27;7.40;;;;;;;3.29;80.36;152210.09;4965152;28;20813;-93
2023/03/07 07:49:02;;;;;;;10.33;6.87;;;;;;;3.32;82.29;152217.81;4961830;29;20848;-92
2023/03/07 07:51:29;;;;;;;10.80;7.13;;;;;;;3.28;81.02;152207.56;4969037;28;20962;-89
2023/03/07 07:53:57;;;;;;;7.63;6.50;;;;;;;3.38;80.60;152232.00;4955965;28;20542;-93
2023/03/07 07:56:24;;;;;;;9.37;6.30;;;;;;;3.41;80.82;152239.72;4961005;28;20482;-93
2023/03/07 07:58:51;;;;;;;11.23;6.90;;;;;;;3.45;80.42;152250.00;4938100;28;20466;-93
2023/03/07 08:01:20;;;;;;;9.93;7.30;;;;;;;3.50;81.12;152264.16;4937075;29;20518;-92
2023/03/07 08:03:47;;;;;;;9.23;6.10;;;;;;;3.55;79.95;152277.03;4941278;28;20959;-93
2023/03/07 08:06:18;;;;;;;9.93;6.60;;;;;;;3.71;80.25;152315.69;4938700;29;20451;-92
2023/03/07 08:08:45;;;;;;;9.67;6.60;;;;;;;3.73;80.22;152322.13;4949457;29;20443;-93
2023/03/07 08:11:13;;;;;;;12.53;7.20;;;;;;;3.78;80.43;152333.69;4954647;28;20812;-93
2023/03/07 08:13:40;;;;;;;9.20;6.67;;;;;;;3.84;79.68;152350.41;4955884;29;20454;-93
2023/03/07 08:16:11;;;;;;;10.40;7.00;;;;;;;3.84;80.98;152349.16;4940100;29;20919;-93
2023/03/07 08:18:37;;;;;;;9.80;7.40;;;;;;;3.93;78.38;152373.59;4937033;29;20897;-94
2023/03/07 08:21:05;;;;;;;11.77;6.97;;;;;;;4.04;77.69;152400.63;4952940;28;20507;-94
2023/03/07 08:23:31;;;;;;;10.27;7.20;;;;;;;4.07;79.50;152409.66;4950847;29;20514;-93
2023/03/07 08:26:02;;;;;;;10.00;7.37;;;;;;;4.18;77.86;152436.72;4951822;29;20447;-93
2023/03/07 08:28:30;;;;;;;8.47;5.87;;;;;;;4.26;77.71;152458.56;4970928;28;20962;-94
2023/03/07 08:30:56;;;;;;;9.53;6.93;;;;;;;4.37;79.54;152485.63;4957345;28;20467;-93
2023/03/07 08:33:23;;;;;;;9.37;7.40;;;;;;;4.44;78.63;152503.69;4955328;28;20533;-94
2023/03/07 08:35:50;;;;;;;10.60;6.80;;;;;;;4.58;76.90;152538.47;4956056;28;20476;-94
2023/03/07 08:38:18;;;;;;;8.53;6.10;;;;;;;4.70;77.57;152570.66;4958858;28;20958;-95
2023/03/07 08:40:44;;;;;;;8.80;6.63;;;;;;;4.74;78.62;152579.66;4956653;28;20800;-93
2023/03/07 08:43:11;;;;;;;9.27;6.77;;;;;;;4.95;76.16;152633.78;4951317;29;20452;-93
2023/03/07 08:45:42;;;;;;;9.33;6.13;;;;;;;4.92;74.72;152626.09;4940310;29;20820;-94
2023/03/07 08:48:09;;;;;;;10.70;7.10;;;;;;;4.93;73.51;152629.94;4957790;28;20873;-94
2023/03/07 08:50:36;;;;;;;9.80;6.70;;;;;;;5.01;75.03;152647.97;4954351;28;20494;-94
2023/03/07 08:53:03;;;;;;;10.60;7.10;;;;;;;5.01;76.34;152647.97;4955030;28;20535;-93
2023/03/07 08:55:29;;;;;;;11.90;6.23;;;;;;;5.07;74.31;152664.75;4938408;29;20459;-94
2023/03/07 08:57:56;;;;;;;8.87;7.63;;;;;;;5.23;73.23;152704.69;4939044;29;20484;-93
2023/03/07 09:00:23;;;;;;;8.63;6.43;;;;;;;5.33;72.74;152730.47;4936446;29;20487;-93
2023/03/07 09:02:53;;;;;;;12.37;7.00;;;;;;;5.42;70.82;152755.00;4947047;29;20492;-93
2023/03/07 09:05:20;;;;;;;9.50;6.87;;;;;;;5.38;71.98;152743.34;4950812;28;20896;-91
2023/03/07 09:07:46;;;;;;;9.23;5.83;;;;;;;5.40;72.35;152748.56;4966957;28;20456;-93
2023/03/07 09:10:13;;;;;;;9.63;6.43;;;;;;;5.45;70.47;152762.69;4963875;28;20515;-93
2023/03/07 09:12:40;;;;;;;7.63;5.93;;;;;;;5.53;71.84;152782.06;4950237;28;20551;-93
2023/03/07 09:15:08;;;;;;;8.00;5.80;;;;;;;5.53;72.78;152782.06;4937610;28;20498;-93
2023/03/07 09:17:35;;;;;;;7.53;6.10;;;;;;;5.58;71.61;152794.97;4937515;29;20479;-93
2023/03/07 09:20:04;;;;;;;8.60;6.87;;;;;;;5.67;71.98;152818.16;4939065;29;20523;-94
2023/03/07 09:22:31;;;;;;;6.40;5.23;;;;;;;5.71;69.22;152827.19;4949668;29;20493;-93
2023/03/07 09:24:58;;;;;;;9.03;6.13;;;;;;;5.69;68.38;152823.34;4948925;28;20491;-94
2023/03/07 09:27:25;;;;;;;7.53;5.80;;;;;;;5.77;70.74;152842.69;4946741;28;20507;-93
2023/03/07 09:29:52;;;;;;;6.43;5.03;;;;;;;5.81;68.85;152852.97;4936488;29;20824;-93
2023/03/07 09:32:19;;;;;;;9.27;6.33;;;;;;;5.81;66.74;152852.97;4960058;28;20523;-93
2023/03/07 09:34:45;;;;;;;7.60;5.47;;;;;;;5.83;66.80;152858.13;4929540;28;20458;-93
2023/03/07 09:37:14;;;;;;;7.13;5.70;;;;;;;5.84;66.14;152862.00;4948792;28;20546;-93
2023/03/07 09:39:40;;;;;;;7.23;5.20;;;;;;;5.78;67.90;152845.22;4935660;29;20460;-93
2023/03/07 09:42:13;;;;;;;9.53;6.70;;;;;;;5.91;64.74;152880.09;4962359;28;20457;-92
2023/03/07 09:44:52;;;;;;;8.63;5.80;;;;;;;5.84;68.89;152862.00;4965794;28;21046;-93
2023/03/07 09:48:12;;;;;;;5.60;4.67;;;;;;;5.72;68.07;152829.78;4947496;28;20547;-93
2023/03/07 09:50:41;;;;;;;7.97;5.70;;;;;;;5.64;66.91;152810.41;4948658;28;20480;-93
2023/03/07 09:53:17;;;;;;;6.07;4.43;;;;;;;5.58;65.67;152794.97;4963784;28;20451;-93
2023/03/07 09:55:44;;;;;;;8.07;5.50;;;;;;;5.49;65.89;152771.72;4946100;28;20499;-92
2023/03/07 09:58:16;;;;;;;7.03;5.30;;;;;;;5.47;67.97;152766.59;4943063;28;20542;-93
2023/03/07 10:00:44;;;;;;;8.10;5.50;;;;;;;5.40;67.07;152749.81;4946767;28;20495;-93
2023/03/07 10:03:27;;;;;;;7.40;6.30;;;;;;;5.31;67.54;152725.31;4947573;28;20452;-93
2023/03/07 10:05:56;;;;;;;8.97;6.00;;;;;;;5.27;68.52;152715.03;4961405;28;20453;-93
2023/03/07 10:08:29;;;;;;;7.80;5.50;;;;;;;5.19;65.77;152694.41;4949317;28;20747;-94
2023/03/07 10:11:00;;;;;;;8.33;5.47;;;;;;;5.11;67.72;152673.78;4951607;29;20448;-94
2023/03/07 10:13:36;;;;;;;8.73;6.07;;;;;;;5.05;68.24;152658.31;4954380;28;20943;-94
2023/03/07 10:16:07;;;;;;;7.90;6.10;;;;;;;5.00;70.39;152645.41;4933426;29;20566;-92
2023/03/07 10:18:42;;;;;;;7.37;5.60;;;;;;;5.01;69.70;152647.97;4959098;28;20734;-91
2023/03/07 10:21:16;;;;;;;10.97;6.53;;;;;;;4.95;70.38;152632.53;4941195;28;20884;-91
2023/03/07 10:24:13;;;;;;;7.43;6.00;;;;;;;4.94;70.37;152631.22;4944592;28;20460;-91
2023/03/07 10:26:42;;;;;;;9.20;6.03;;;;;;;4.92;69.59;152626.09;4956599;28;20444;-91
2023/03/07 10:29:14;;;;;;;8.57;6.17;;;;;;;4.90;69.70;152622.19;4940711;28;20550;-92
2023/03/07 10:31:44;;;;;;;11.27;6.40;;;;;;;4.87;70.03;152614.47;4945847;28;20455;-92
2023/03/07 10:34:16;;;;;;;9.00;5.93;;;;;;;4.88;69.92;152615.75;4959695;28;20461;-92
2023/03/07 10:36:45;;;;;;;8.30;6.07;;;;;;;4.89;71.29;152619.66;4948288;28;20475;-92
2023/03/07 10:39:22;;;;;;;6.87;6.03;;;;;;;4.90;70.04;152622.19;4960016;28;20558;-91
2023/03/07 10:41:49;;;;;;;7.60;5.97;;;;;;;4.84;71.15;152606.72;4958028;28;20455;-92
2023/03/07 10:44:19;;;;;;;9.20;6.33;;;;;;;4.83;71.05;152604.16;4940172;28;20459;-92
2023/03/07 10:46:46;;;;;;;7.10;5.83;;;;;;;4.83;70.98;152604.16;4966632;28;20460;-92
2023/03/07 10:49:15;;;;;;;7.00;5.20;;;;;;;4.81;72.21;152597.72;4955287;29;20499;-92
2023/03/07 10:51:53;;;;;;;9.77;7.20;;;;;;;4.80;70.49;152596.44;4962315;28;20927;-91
2023/03/07 10:54:22;;;;;;;8.80;5.80;;;;;;;4.80;69.21;152596.44;4970951;28;20498;-92
2023/03/07 10:57:09;;;;;;;8.20;5.97;;;;;;;4.82;70.34;152601.56;4960687;28;20492;-91
2023/03/07 10:59:38;;;;;;;8.33;6.40;;;;;;;4.83;72.13;152604.16;4948663;28;20470;-92
2023/03/07 11:02:28;;;;;;;8.83;5.50;;;;;;;4.86;69.29;152611.91;4959177;28;20464;-92
2023/03/07 11:04:55;;;;;;;8.10;5.77;;;;;;;4.84;67.18;152606.72;4945132;29;20467;-92
2023/03/07 11:07:27;;;;;;;7.43;5.67;;;;;;;4.88;67.97;152615.75;4965596;28;20455;-93
2023/03/07 11:09:57;;;;;;;9.03;6.20;;;;;;;4.82;69.67;152601.56;4972474;28;20457;-93
2023/03/07 11:12:25;;;;;;;7.57;5.90;;;;;;;4.81;67.46;152597.72;4952717;29;20446;-93
2023/03/07 11:14:53;;;;;;;7.90;5.83;;;;;;;4.78;68.29;152590.00;4938303;29;20487;-92
2023/03/07 11:17:21;;;;;;;8.83;5.67;;;;;;;4.78;65.78;152591.28;4953945;28;20487;-94
2023/03/07 11:19:49;;;;;;;8.17;5.40;;;;;;;4.80;69.03;152595.13;4951062;28;20499;-94
2023/03/07 11:22:23;;;;;;;9.30;6.13;;;;;;;4.76;69.98;152586.16;4935082;29;20959;-93
2023/03/07 11:24:54;;;;;;;9.63;5.43;;;;;;;4.76;67.63;152584.84;4954490;28;20459;-94
2023/03/07 11:27:33;;;;;;;7.63;5.70;;;;;;;4.79;69.13;152593.84;4961469;28;20534;-94
2023/03/07 11:30:08;;;;;;;9.93;6.80;;;;;;;4.84;67.53;152606.72;4955759;28;20456;-94
2023/03/07 11:32:37;;;;;;;7.27;5.47;;;;;;;4.82;68.42;152600.28;4945945;28;20480;-93
2023/03/07 11:35:06;;;;;;;8.03;5.37;;;;;;;4.89;66.27;152619.66;4948708;29;20466;-93
2023/03/07 11:37:34;;;;;;;7.70;5.47;;;;;;;4.91;68.00;152624.78;4952808;29;20526;-93